createdAt,value
2017-02-21T00:00:02.918Z,0
2017-02-21T00:05:03.356Z,0
2017-02-21T00:10:03.129Z,0
2017-02-21T00:15:02.867Z,0
2017-02-21T00:20:02.821Z,0
2017-02-21T00:25:03.469Z,0
2017-02-21T00:30:03.166Z,0
2017-02-21T00:35:03.201Z,0
2017-02-21T00:40:03.195Z,0
2017-02-21T00:45:03.115Z,0
2017-02-21T00:50:03.023Z,0
2017-02-21T00:55:02.812Z,0
2017-02-21T01:00:03.015Z,0
2017-02-21T01:05:03.190Z,0
2017-02-21T01:10:03.089Z,0
2017-02-21T01:15:03.125Z,0
2017-02-21T01:20:03.014Z,0
2017-02-21T01:25:03.020Z,0
2017-02-21T01:30:02.886Z,0
2017-02-21T01:35:02.583Z,0
2017-02-21T01:40:02.708Z,0
2017-02-21T01:45:02.503Z,0
2017-02-21T01:50:03.193Z,0
2017-02-21T01:55:03.279Z,0
2017-02-21T02:00:02.875Z,0
2017-02-21T02:05:02.918Z,0
2017-02-21T02:10:02.620Z,0
2017-02-21T02:15:02.849Z,0
2017-02-21T02:20:02.614Z,0
2017-02-21T02:25:03.466Z,0
2017-02-21T02:30:03.170Z,0
2017-02-21T02:35:02.886Z,0
2017-02-21T02:40:03.217Z,0
2017-02-21T02:45:03.167Z,0
2017-02-21T02:50:02.960Z,0
2017-02-21T02:55:03.054Z,0
2017-02-21T03:00:03.096Z,0
2017-02-21T03:05:02.979Z,0
2017-02-21T03:10:02.875Z,0
2017-02-21T03:15:02.784Z,0
2017-02-21T03:20:02.834Z,0
2017-02-21T03:25:02.722Z,0
2017-02-21T03:30:03.478Z,0
2017-02-21T03:35:02.465Z,0
2017-02-21T03:40:02.612Z,0
2017-02-21T03:45:02.555Z,0
2017-02-21T03:50:02.597Z,0
2017-02-21T03:55:03.401Z,0
2017-02-21T04:00:03.270Z,0
2017-02-21T04:05:03.446Z,0
2017-02-21T04:10:03.380Z,0
2017-02-21T04:15:03.412Z,0
2017-02-21T04:20:03.162Z,0
2017-02-21T04:25:03.129Z,0
2017-02-21T04:30:02.817Z,0
2017-02-21T04:35:02.941Z,0
2017-02-21T04:40:02.969Z,0
2017-02-21T04:45:02.635Z,0
2017-02-21T04:50:02.781Z,0
2017-02-21T04:55:02.607Z,0
2017-02-21T05:00:02.647Z,0
2017-02-21T05:05:02.484Z,0
2017-02-21T05:10:03.391Z,0
2017-02-21T05:15:03.139Z,0
2017-02-21T05:20:03.155Z,0
2017-02-21T05:25:03.029Z,0
2017-02-21T05:30:03.161Z,0
2017-02-21T05:35:02.829Z,0
2017-02-21T05:40:02.707Z,0
2017-02-21T05:45:03.401Z,0
2017-02-21T05:50:03.152Z,0
2017-02-21T05:55:03.026Z,0
2017-02-21T06:00:02.924Z,0
2017-02-21T06:05:03.013Z,0
2017-02-21T06:10:02.848Z,1
2017-02-21T06:15:02.837Z,3
2017-02-21T06:20:02.623Z,10
2017-02-21T06:25:03.099Z,26
2017-02-21T06:30:02.874Z,38
2017-02-21T06:35:02.856Z,60
2017-02-21T06:40:02.812Z,98
2017-02-21T06:45:02.647Z,175
2017-02-21T06:50:03.422Z,433
2017-02-21T06:55:02.539Z,564
2017-02-21T07:00:02.799Z,696
2017-02-21T07:05:02.890Z,951
2017-02-21T07:10:02.933Z,1000
2017-02-21T07:15:03.034Z,1000
2017-02-21T07:20:02.922Z,1000
2017-02-21T07:25:02.657Z,1000
2017-02-21T07:30:03.487Z,1000
2017-02-21T07:35:02.612Z,1000
2017-02-21T07:40:02.950Z,1000
2017-02-21T07:45:02.791Z,2000
2017-02-21T07:50:02.813Z,2000
2017-02-21T07:55:02.730Z,3000
2017-02-21T08:00:02.635Z,3000
2017-02-21T08:05:02.566Z,3000
2017-02-21T08:10:03.411Z,4000
2017-02-21T08:15:03.473Z,4000
2017-02-21T08:20:03.460Z,4000
2017-02-21T08:25:02.486Z,4000
2017-02-21T08:30:03.323Z,3000
2017-02-21T08:35:03.391Z,3000
2017-02-21T08:40:03.291Z,10000
2017-02-21T08:45:03.156Z,5000
2017-02-21T08:50:03.143Z,5000
2017-02-21T08:55:03.219Z,5000
2017-02-21T09:00:03.025Z,4000
2017-02-21T09:05:02.880Z,4000
2017-02-21T09:10:03.069Z,4000
2017-02-21T09:15:02.926Z,2000
2017-02-21T09:20:03.205Z,1000
2017-02-21T09:25:03.129Z,2000
2017-02-21T09:30:02.796Z,1000
2017-02-21T09:35:02.594Z,2000
2017-02-21T09:40:03.459Z,1000
2017-02-21T09:45:03.353Z,3000
2017-02-21T09:50:03.354Z,6000
2017-02-21T09:55:03.300Z,7000
2017-02-21T10:00:03.413Z,6000
2017-02-21T10:05:03.322Z,34000
2017-02-21T10:10:02.519Z,26000
2017-02-21T10:15:02.473Z,26000
2017-02-21T10:20:03.404Z,5000
2017-02-21T10:25:02.526Z,38000
2017-02-21T10:30:03.227Z,15000
2017-02-21T10:35:03.282Z,11000
2017-02-21T10:40:02.700Z,12000
2017-02-21T10:45:03.015Z,11000
2017-02-21T10:50:03.269Z,7000
2017-02-21T10:55:03.213Z,14000
2017-02-21T11:00:02.599Z,15000
2017-02-21T11:05:02.541Z,7000
2017-02-21T11:10:02.665Z,4000
2017-02-21T11:15:02.951Z,31000
2017-02-21T11:20:03.220Z,14000
2017-02-21T11:25:02.826Z,40000
2017-02-21T11:30:03.142Z,17000
2017-02-21T11:35:03.111Z,35000
2017-02-21T11:40:02.980Z,43000
2017-02-21T11:45:03.395Z,29000
2017-02-21T11:50:02.900Z,9000
2017-02-21T11:55:02.930Z,29000
2017-02-21T12:00:03.139Z,21000
2017-02-21T12:05:03.463Z,8000
2017-02-21T12:10:03.157Z,7000
2017-02-21T12:15:03.081Z,7000
2017-02-21T12:20:02.685Z,14000
2017-02-21T12:25:03.452Z,24000
2017-02-21T12:30:03.043Z,34000
2017-02-21T12:35:03.205Z,20000
2017-02-21T12:40:03.488Z,7000
2017-02-21T12:45:02.694Z,5000
2017-02-21T12:50:02.729Z,33000
2017-02-21T12:55:02.862Z,5000
2017-02-21T13:00:02.773Z,26000
2017-02-21T13:05:02.956Z,18000
2017-02-21T13:10:02.982Z,17000
2017-02-21T13:15:03.142Z,9000
2017-02-21T13:20:03.354Z,21000
2017-02-21T13:25:03.428Z,9000
2017-02-21T13:30:02.498Z,24000
2017-02-21T13:35:02.647Z,23000
2017-02-21T13:40:02.994Z,19000
2017-02-21T13:45:02.554Z,21000
2017-02-21T13:50:03.504Z,24000
2017-02-21T13:55:02.595Z,25000
2017-02-21T14:00:03.333Z,20000
2017-02-21T14:05:02.757Z,19000
2017-02-21T14:10:02.711Z,23000
2017-02-21T14:15:03.110Z,23000
2017-02-21T14:20:02.962Z,24000
2017-02-21T14:25:02.838Z,19000
2017-02-21T14:30:02.766Z,11000
2017-02-21T14:35:03.042Z,12000
2017-02-21T14:40:03.382Z,15000
2017-02-21T14:45:03.185Z,11000
2017-02-21T14:50:03.231Z,11000
2017-02-21T14:55:02.555Z,12000
2017-02-21T15:00:03.315Z,11000
2017-02-21T15:05:02.560Z,12000
2017-02-21T15:10:02.494Z,14000
2017-02-21T15:15:03.252Z,14000
2017-02-21T15:20:02.989Z,11000
2017-02-21T15:25:02.972Z,11000
2017-02-21T15:30:03.137Z,12000
2017-02-21T15:35:03.382Z,10000
2017-02-21T15:40:03.107Z,7000
2017-02-21T15:45:03.128Z,8000
2017-02-21T15:50:02.513Z,8000
2017-02-21T15:55:03.148Z,5000
2017-02-21T16:00:03.481Z,5000
2017-02-21T16:05:02.541Z,4000
2017-02-21T16:10:02.673Z,3000
2017-02-21T16:15:02.934Z,2000
2017-02-21T16:20:02.702Z,1000
2017-02-21T16:25:02.761Z,1000
2017-02-21T16:30:02.618Z,1000
2017-02-21T16:35:02.879Z,985
2017-02-21T16:40:02.921Z,721
2017-02-21T16:45:03.044Z,590
2017-02-21T16:50:03.030Z,459
2017-02-21T16:55:02.791Z,194
2017-02-21T17:00:02.944Z,75
2017-02-21T17:05:03.033Z,62
2017-02-21T17:10:02.876Z,53
2017-02-21T17:15:02.568Z,27
2017-02-21T17:20:02.634Z,13
2017-02-21T17:25:03.474Z,5
2017-02-21T17:30:03.455Z,2
2017-02-21T17:35:03.105Z,0
2017-02-21T17:40:02.833Z,0
2017-02-21T17:45:02.826Z,0
2017-02-21T17:50:02.621Z,0
2017-02-21T17:55:03.374Z,0
2017-02-21T18:00:03.201Z,0
2017-02-21T18:05:03.116Z,0
2017-02-21T18:10:02.892Z,0
2017-02-21T18:15:02.587Z,0
2017-02-21T18:20:03.389Z,0
2017-02-21T18:25:03.397Z,0
2017-02-21T18:30:03.293Z,0
2017-02-21T18:35:03.042Z,0
2017-02-21T18:40:02.850Z,0
2017-02-21T18:45:02.791Z,0
2017-02-21T18:50:02.614Z,0
2017-02-21T18:55:02.708Z,0
2017-02-21T19:00:02.575Z,0
2017-02-21T19:05:02.635Z,0
2017-02-21T19:10:03.440Z,0
2017-02-21T19:15:03.186Z,0
2017-02-21T19:20:03.081Z,0
2017-02-21T19:25:02.987Z,0
2017-02-21T19:30:02.733Z,0
2017-02-21T19:35:02.699Z,0
2017-02-21T19:40:02.753Z,0
2017-02-21T19:45:03.513Z,0
2017-02-21T19:50:02.472Z,0
2017-02-21T19:55:03.272Z,0
2017-02-21T20:00:03.141Z,0
2017-02-21T20:05:02.977Z,0
2017-02-21T20:10:02.910Z,0
2017-02-21T20:15:02.863Z,0
2017-02-21T20:20:02.741Z,0
2017-02-21T20:25:02.637Z,0
2017-02-21T20:30:03.276Z,0
2017-02-21T20:35:03.118Z,0
2017-02-21T20:40:03.216Z,0
2017-02-21T20:45:03.036Z,0
2017-02-21T20:50:02.776Z,0
2017-02-21T20:55:02.784Z,0
2017-02-21T21:00:02.498Z,0
2017-02-21T21:05:03.255Z,0
2017-02-21T21:10:03.031Z,0
2017-02-21T21:15:03.205Z,0
2017-02-21T21:20:03.204Z,0
2017-02-21T21:25:02.999Z,0
2017-02-21T21:30:03.102Z,0
2017-02-21T21:35:02.987Z,0
2017-02-21T21:40:02.811Z,0
2017-02-21T21:45:02.612Z,0
2017-02-21T21:50:03.346Z,0
2017-02-21T21:55:03.223Z,0
2017-02-21T22:00:03.057Z,0
2017-02-21T22:05:02.853Z,0
2017-02-21T22:10:02.741Z,0
2017-02-21T22:15:02.684Z,0
2017-02-21T22:20:02.725Z,0
2017-02-21T22:25:03.349Z,0
2017-02-21T22:30:03.167Z,0
2017-02-21T22:35:03.255Z,0
2017-02-21T22:40:03.220Z,0
2017-02-21T22:45:03.123Z,0
2017-02-21T22:50:03.124Z,0
2017-02-21T22:55:02.771Z,0
2017-02-21T23:00:02.667Z,0
2017-02-21T23:05:02.679Z,0
2017-02-21T23:10:03.410Z,0
2017-02-21T23:15:03.239Z,0
2017-02-21T23:20:03.132Z,0
2017-02-21T23:25:02.999Z,0
2017-02-21T23:30:02.782Z,0
2017-02-21T23:35:02.635Z,0
2017-02-21T23:40:02.523Z,0
2017-02-21T23:45:03.309Z,0
2017-02-21T23:50:02.973Z,0
2017-02-21T23:55:02.898Z,0
